sensor_id;sensor_type;location;lat;lon;timestamp;P1;durP1;ratioP1;P2;durP2;ratioP2
47373;SDS011;33123;50.118;10.272;2023-05-20T00:00:19;2.38;;;2.10;;
47373;SDS011;33123;50.118;10.272;2023-05-20T00:02:45;2.10;;;1.88;;
47373;SDS011;33123;50.118;10.272;2023-05-20T00:05:12;1.67;;;1.58;;
47373;SDS011;33123;50.118;10.272;2023-05-20T00:07:39;5.13;;;2.58;;
47373;SDS011;33123;50.118;10.272;2023-05-20T00:10:06;2.88;;;2.58;;
47373;SDS011;33123;50.118;10.272;2023-05-20T00:12:34;3.38;;;2.13;;
47373;SDS011;33123;50.118;10.272;2023-05-20T00:15:01;1.90;;;1.80;;
47373;SDS011;33123;50.118;10.272;2023-05-20T00:17:27;2.42;;;1.65;;
47373;SDS011;33123;50.118;10.272;2023-05-20T00:19:54;2.72;;;2.53;;
47373;SDS011;33123;50.118;10.272;2023-05-20T00:22:20;2.95;;;1.83;;
47373;SDS011;33123;50.118;10.272;2023-05-20T00:24:47;1.55;;;1.45;;
47373;SDS011;33123;50.118;10.272;2023-05-20T00:27:14;2.38;;;2.08;;
47373;SDS011;33123;50.118;10.272;2023-05-20T00:29:42;2.17;;;1.98;;
47373;SDS011;33123;50.118;10.272;2023-05-20T00:32:08;2.10;;;1.88;;
47373;SDS011;33123;50.118;10.272;2023-05-20T00:34:35;1.85;;;1.58;;
47373;SDS011;33123;50.118;10.272;2023-05-20T00:37:01;4.10;;;2.30;;
47373;SDS011;33123;50.118;10.272;2023-05-20T00:39:28;2.00;;;1.90;;
47373;SDS011;33123;50.118;10.272;2023-05-20T00:41:55;2.53;;;1.92;;
47373;SDS011;33123;50.118;10.272;2023-05-20T00:44:24;1.60;;;1.50;;
47373;SDS011;33123;50.118;10.272;2023-05-20T00:46:52;1.88;;;1.75;;
47373;SDS011;33123;50.118;10.272;2023-05-20T00:49:20;2.05;;;1.88;;
47373;SDS011;33123;50.118;10.272;2023-05-20T00:51:47;1.75;;;1.65;;
47373;SDS011;33123;50.118;10.272;2023-05-20T00:54:14;2.28;;;1.33;;
47373;SDS011;33123;50.118;10.272;2023-05-20T00:56:41;2.90;;;2.08;;
47373;SDS011;33123;50.118;10.272;2023-05-20T00:59:08;2.03;;;1.92;;
47373;SDS011;33123;50.118;10.272;2023-05-20T01:01:35;2.75;;;2.33;;
47373;SDS011;33123;50.118;10.272;2023-05-20T01:04:03;1.83;;;1.55;;
47373;SDS011;33123;50.118;10.272;2023-05-20T01:06:30;2.22;;;1.77;;
47373;SDS011;33123;50.118;10.272;2023-05-20T01:08:57;1.67;;;1.55;;
47373;SDS011;33123;50.118;10.272;2023-05-20T01:11:25;1.63;;;1.52;;
47373;SDS011;33123;50.118;10.272;2023-05-20T01:13:57;4.95;;;2.22;;
47373;SDS011;33123;50.118;10.272;2023-05-20T01:16:28;4.82;;;1.95;;
47373;SDS011;33123;50.118;10.272;2023-05-20T01:18:58;1.67;;;1.58;;
47373;SDS011;33123;50.118;10.272;2023-05-20T01:21:27;2.63;;;1.92;;
47373;SDS011;33123;50.118;10.272;2023-05-20T01:23:57;3.90;;;2.53;;
47373;SDS011;33123;50.118;10.272;2023-05-20T01:26:25;1.55;;;1.45;;
47373;SDS011;33123;50.118;10.272;2023-05-20T01:28:52;3.80;;;2.30;;
47373;SDS011;33123;50.118;10.272;2023-05-20T01:31:22;1.50;;;1.27;;
47373;SDS011;33123;50.118;10.272;2023-05-20T01:33:53;3.13;;;2.33;;
47373;SDS011;33123;50.118;10.272;2023-05-20T01:36:22;2.53;;;1.73;;
47373;SDS011;33123;50.118;10.272;2023-05-20T01:38:50;3.45;;;2.20;;
47373;SDS011;33123;50.118;10.272;2023-05-20T01:41:20;2.00;;;1.75;;
47373;SDS011;33123;50.118;10.272;2023-05-20T01:43:49;2.13;;;1.77;;
47373;SDS011;33123;50.118;10.272;2023-05-20T01:46:16;1.77;;;1.67;;
47373;SDS011;33123;50.118;10.272;2023-05-20T01:48:42;2.35;;;2.15;;
47373;SDS011;33123;50.118;10.272;2023-05-20T01:51:09;2.38;;;1.80;;
47373;SDS011;33123;50.118;10.272;2023-05-20T01:53:36;2.65;;;2.13;;
47373;SDS011;33123;50.118;10.272;2023-05-20T01:56:03;3.00;;;2.33;;
47373;SDS011;33123;50.118;10.272;2023-05-20T01:58:32;8.95;;;2.08;;
47373;SDS011;33123;50.118;10.272;2023-05-20T02:00:58;2.13;;;1.92;;
47373;SDS011;33123;50.118;10.272;2023-05-20T02:03:25;2.30;;;2.10;;
47373;SDS011;33123;50.118;10.272;2023-05-20T02:05:52;3.00;;;2.55;;
47373;SDS011;33123;50.118;10.272;2023-05-20T02:08:18;2.13;;;1.70;;
47373;SDS011;33123;50.118;10.272;2023-05-20T02:10:46;1.60;;;1.50;;
47373;SDS011;33123;50.118;10.272;2023-05-20T02:13:13;2.20;;;2.00;;
47373;SDS011;33123;50.118;10.272;2023-05-20T02:15:41;2.90;;;1.80;;
47373;SDS011;33123;50.118;10.272;2023-05-20T02:18:08;2.70;;;2.10;;
47373;SDS011;33123;50.118;10.272;2023-05-20T02:20:36;3.50;;;2.45;;
47373;SDS011;33123;50.118;10.272;2023-05-20T02:23:03;2.20;;;2.00;;
47373;SDS011;33123;50.118;10.272;2023-05-20T02:25:30;1.77;;;1.67;;
47373;SDS011;33123;50.118;10.272;2023-05-20T02:27:56;1.60;;;1.50;;
47373;SDS011;33123;50.118;10.272;2023-05-20T02:30:23;2.72;;;2.47;;
47373;SDS011;33123;50.118;10.272;2023-05-20T02:32:51;3.08;;;2.17;;
47373;SDS011;33123;50.118;10.272;2023-05-20T02:35:17;2.20;;;2.00;;
47373;SDS011;33123;50.118;10.272;2023-05-20T02:37:44;2.42;;;2.10;;
47373;SDS011;33123;50.118;10.272;2023-05-20T02:40:12;1.77;;;1.48;;
47373;SDS011;33123;50.118;10.272;2023-05-20T02:42:39;2.10;;;1.85;;
47373;SDS011;33123;50.118;10.272;2023-05-20T02:45:07;1.98;;;1.75;;
47373;SDS011;33123;50.118;10.272;2023-05-20T02:47:34;2.88;;;2.60;;
47373;SDS011;33123;50.118;10.272;2023-05-20T02:50:02;3.30;;;2.40;;
47373;SDS011;33123;50.118;10.272;2023-05-20T02:52:28;2.33;;;2.00;;
47373;SDS011;33123;50.118;10.272;2023-05-20T02:54:55;3.60;;;3.03;;
47373;SDS011;33123;50.118;10.272;2023-05-20T02:57:22;5.18;;;2.40;;
47373;SDS011;33123;50.118;10.272;2023-05-20T02:59:48;1.63;;;1.52;;
47373;SDS011;33123;50.118;10.272;2023-05-20T03:02:16;2.05;;;1.85;;
47373;SDS011;33123;50.118;10.272;2023-05-20T03:04:42;2.60;;;1.80;;
47373;SDS011;33123;50.118;10.272;2023-05-20T03:07:11;1.85;;;1.70;;
47373;SDS011;33123;50.118;10.272;2023-05-20T03:09:38;9.18;;;2.15;;
47373;SDS011;33123;50.118;10.272;2023-05-20T03:12:05;2.80;;;2.17;;
47373;SDS011;33123;50.118;10.272;2023-05-20T03:14:32;3.10;;;2.67;;
47373;SDS011;33123;50.118;10.272;2023-05-20T03:16:58;2.00;;;1.70;;
47373;SDS011;33123;50.118;10.272;2023-05-20T03:19:25;2.63;;;2.22;;
47373;SDS011;33123;50.118;10.272;2023-05-20T03:21:51;2.50;;;1.70;;
47373;SDS011;33123;50.118;10.272;2023-05-20T03:24:19;2.45;;;1.75;;
47373;SDS011;33123;50.118;10.272;2023-05-20T03:26:47;2.60;;;1.73;;
47373;SDS011;33123;50.118;10.272;2023-05-20T03:29:14;2.72;;;2.28;;
47373;SDS011;33123;50.118;10.272;2023-05-20T03:31:41;2.45;;;2.25;;
47373;SDS011;33123;50.118;10.272;2023-05-20T03:34:08;3.25;;;2.72;;
47373;SDS011;33123;50.118;10.272;2023-05-20T03:36:35;2.65;;;2.45;;
47373;SDS011;33123;50.118;10.272;2023-05-20T03:39:01;2.60;;;1.75;;
47373;SDS011;33123;50.118;10.272;2023-05-20T03:41:31;2.17;;;1.98;;
47373;SDS011;33123;50.118;10.272;2023-05-20T03:43:57;2.88;;;2.63;;
47373;SDS011;33123;50.118;10.272;2023-05-20T03:46:24;4.65;;;1.95;;
47373;SDS011;33123;50.118;10.272;2023-05-20T03:48:51;2.10;;;1.90;;
47373;SDS011;33123;50.118;10.272;2023-05-20T03:51:17;3.15;;;2.85;;
47373;SDS011;33123;50.118;10.272;2023-05-20T03:53:44;2.67;;;2.47;;
47373;SDS011;33123;50.118;10.272;2023-05-20T03:56:10;2.63;;;1.83;;
47373;SDS011;33123;50.118;10.272;2023-05-20T03:58:38;3.17;;;2.78;;
47373;SDS011;33123;50.118;10.272;2023-05-20T04:01:05;2.58;;;2.00;;
47373;SDS011;33123;50.118;10.272;2023-05-20T04:03:31;2.70;;;2.25;;
47373;SDS011;33123;50.118;10.272;2023-05-20T04:05:58;1.92;;;1.80;;
47373;SDS011;33123;50.118;10.272;2023-05-20T04:08:24;2.85;;;2.47;;
47373;SDS011;33123;50.118;10.272;2023-05-20T04:10:54;4.28;;;2.65;;
47373;SDS011;33123;50.118;10.272;2023-05-20T04:13:21;3.38;;;2.83;;
47373;SDS011;33123;50.118;10.272;2023-05-20T04:15:50;3.67;;;3.13;;
47373;SDS011;33123;50.118;10.272;2023-05-20T04:18:17;2.83;;;2.42;;
47373;SDS011;33123;50.118;10.272;2023-05-20T04:20:44;2.30;;;2.10;;
47373;SDS011;33123;50.118;10.272;2023-05-20T04:23:11;2.30;;;2.10;;
47373;SDS011;33123;50.118;10.272;2023-05-20T04:25:37;2.00;;;1.75;;
47373;SDS011;33123;50.118;10.272;2023-05-20T04:28:05;3.05;;;2.15;;
47373;SDS011;33123;50.118;10.272;2023-05-20T04:30:31;4.03;;;2.28;;
47373;SDS011;33123;50.118;10.272;2023-05-20T04:33:00;2.72;;;2.03;;
47373;SDS011;33123;50.118;10.272;2023-05-20T04:35:28;2.28;;;2.08;;
47373;SDS011;33123;50.118;10.272;2023-05-20T04:37:54;3.30;;;2.10;;
47373;SDS011;33123;50.118;10.272;2023-05-20T04:40:21;3.03;;;2.45;;
47373;SDS011;33123;50.118;10.272;2023-05-20T04:42:47;2.28;;;2.08;;
47373;SDS011;33123;50.118;10.272;2023-05-20T04:45:15;2.70;;;2.50;;
47373;SDS011;33123;50.118;10.272;2023-05-20T04:47:42;5.35;;;2.67;;
47373;SDS011;33123;50.118;10.272;2023-05-20T04:50:11;3.15;;;2.65;;
47373;SDS011;33123;50.118;10.272;2023-05-20T04:52:38;2.22;;;2.00;;
47373;SDS011;33123;50.118;10.272;2023-05-20T04:55:07;4.07;;;2.38;;
47373;SDS011;33123;50.118;10.272;2023-05-20T04:57:35;3.33;;;2.92;;
47373;SDS011;33123;50.118;10.272;2023-05-20T05:00:03;2.65;;;1.88;;
47373;SDS011;33123;50.118;10.272;2023-05-20T05:02:31;2.65;;;2.30;;
47373;SDS011;33123;50.118;10.272;2023-05-20T05:04:58;4.40;;;2.80;;
47373;SDS011;33123;50.118;10.272;2023-05-20T05:07:26;3.13;;;2.38;;
47373;SDS011;33123;50.118;10.272;2023-05-20T05:09:53;3.35;;;2.75;;
47373;SDS011;33123;50.118;10.272;2023-05-20T05:12:19;3.78;;;2.78;;
47373;SDS011;33123;50.118;10.272;2023-05-20T05:14:46;2.78;;;2.22;;
47373;SDS011;33123;50.118;10.272;2023-05-20T05:17:15;3.40;;;2.20;;
47373;SDS011;33123;50.118;10.272;2023-05-20T05:19:41;2.42;;;2.22;;
47373;SDS011;33123;50.118;10.272;2023-05-20T05:22:08;2.55;;;2.25;;
47373;SDS011;33123;50.118;10.272;2023-05-20T05:24:36;2.97;;;2.78;;
47373;SDS011;33123;50.118;10.272;2023-05-20T05:27:04;4.05;;;2.47;;
47373;SDS011;33123;50.118;10.272;2023-05-20T05:29:30;3.88;;;3.05;;
47373;SDS011;33123;50.118;10.272;2023-05-20T05:31:57;3.17;;;2.35;;
47373;SDS011;33123;50.118;10.272;2023-05-20T05:34:24;2.25;;;1.98;;
47373;SDS011;33123;50.118;10.272;2023-05-20T05:36:50;2.15;;;1.95;;
47373;SDS011;33123;50.118;10.272;2023-05-20T05:39:17;2.92;;;2.63;;
47373;SDS011;33123;50.118;10.272;2023-05-20T05:41:45;2.08;;;1.88;;
47373;SDS011;33123;50.118;10.272;2023-05-20T05:44:12;6.15;;;2.88;;
47373;SDS011;33123;50.118;10.272;2023-05-20T05:46:39;2.33;;;2.13;;
47373;SDS011;33123;50.118;10.272;2023-05-20T05:49:06;1.88;;;1.70;;
47373;SDS011;33123;50.118;10.272;2023-05-20T05:51:32;2.97;;;2.28;;
47373;SDS011;33123;50.118;10.272;2023-05-20T05:53:59;2.17;;;1.88;;
47373;SDS011;33123;50.118;10.272;2023-05-20T05:56:25;3.38;;;3.08;;
47373;SDS011;33123;50.118;10.272;2023-05-20T05:58:53;2.97;;;2.33;;
47373;SDS011;33123;50.118;10.272;2023-05-20T06:01:20;2.80;;;2.20;;
47373;SDS011;33123;50.118;10.272;2023-05-20T06:03:46;4.18;;;2.67;;
47373;SDS011;33123;50.118;10.272;2023-05-20T06:06:13;1.85;;;1.75;;
47373;SDS011;33123;50.118;10.272;2023-05-20T06:08:40;3.50;;;2.03;;
47373;SDS011;33123;50.118;10.272;2023-05-20T06:11:06;2.95;;;2.45;;
47373;SDS011;33123;50.118;10.272;2023-05-20T06:13:34;3.05;;;2.75;;
47373;SDS011;33123;50.118;10.272;2023-05-20T06:16:02;3.10;;;2.67;;
47373;SDS011;33123;50.118;10.272;2023-05-20T06:18:29;3.15;;;2.72;;
47373;SDS011;33123;50.118;10.272;2023-05-20T06:20:56;2.45;;;2.25;;
47373;SDS011;33123;50.118;10.272;2023-05-20T06:23:23;3.03;;;2.72;;
47373;SDS011;33123;50.118;10.272;2023-05-20T06:25:50;2.67;;;2.47;;
47373;SDS011;33123;50.118;10.272;2023-05-20T06:28:17;2.42;;;2.13;;
47373;SDS011;33123;50.118;10.272;2023-05-20T06:30:44;4.53;;;2.65;;
47373;SDS011;33123;50.118;10.272;2023-05-20T06:33:11;2.80;;;2.55;;
47373;SDS011;33123;50.118;10.272;2023-05-20T06:35:38;2.60;;;2.40;;
47373;SDS011;33123;50.118;10.272;2023-05-20T06:38:05;4.43;;;2.85;;
47373;SDS011;33123;50.118;10.272;2023-05-20T06:40:31;2.95;;;2.67;;
47373;SDS011;33123;50.118;10.272;2023-05-20T06:42:58;2.63;;;2.42;;
47373;SDS011;33123;50.118;10.272;2023-05-20T06:45:24;7.55;;;2.97;;
47373;SDS011;33123;50.118;10.272;2023-05-20T06:47:51;3.28;;;2.38;;
47373;SDS011;33123;50.118;10.272;2023-05-20T06:50:19;3.08;;;2.35;;
47373;SDS011;33123;50.118;10.272;2023-05-20T06:52:46;2.97;;;2.05;;
47373;SDS011;33123;50.118;10.272;2023-05-20T06:55:13;3.53;;;3.20;;
47373;SDS011;33123;50.118;10.272;2023-05-20T06:57:39;3.33;;;2.97;;
47373;SDS011;33123;50.118;10.272;2023-05-20T07:00:06;5.90;;;2.63;;
47373;SDS011;33123;50.118;10.272;2023-05-20T07:02:34;3.50;;;3.17;;
47373;SDS011;33123;50.118;10.272;2023-05-20T07:05:00;3.70;;;2.83;;
47373;SDS011;33123;50.118;10.272;2023-05-20T07:07:28;3.70;;;2.38;;
47373;SDS011;33123;50.118;10.272;2023-05-20T07:09:56;3.42;;;3.13;;
47373;SDS011;33123;50.118;10.272;2023-05-20T07:12:22;3.03;;;2.55;;
47373;SDS011;33123;50.118;10.272;2023-05-20T07:14:49;6.70;;;5.35;;
47373;SDS011;33123;50.118;10.272;2023-05-20T07:17:16;5.30;;;4.18;;
47373;SDS011;33123;50.118;10.272;2023-05-20T07:19:43;3.38;;;2.95;;
47373;SDS011;33123;50.118;10.272;2023-05-20T07:22:09;2.17;;;2.00;;
47373;SDS011;33123;50.118;10.272;2023-05-20T07:24:37;3.60;;;3.30;;
47373;SDS011;33123;50.118;10.272;2023-05-20T07:27:04;3.25;;;2.95;;
47373;SDS011;33123;50.118;10.272;2023-05-20T07:29:31;4.28;;;3.88;;
47373;SDS011;33123;50.118;10.272;2023-05-20T07:31:57;3.42;;;2.80;;
47373;SDS011;33123;50.118;10.272;2023-05-20T07:34:24;3.08;;;2.78;;
47373;SDS011;33123;50.118;10.272;2023-05-20T07:36:51;4.20;;;3.47;;
47373;SDS011;33123;50.118;10.272;2023-05-20T07:39:17;2.75;;;2.45;;
47373;SDS011;33123;50.118;10.272;2023-05-20T07:41:45;4.68;;;2.95;;
47373;SDS011;33123;50.118;10.272;2023-05-20T07:44:12;2.97;;;2.70;;
47373;SDS011;33123;50.118;10.272;2023-05-20T07:46:38;6.68;;;3.25;;
47373;SDS011;33123;50.118;10.272;2023-05-20T07:49:06;3.47;;;3.03;;
47373;SDS011;33123;50.118;10.272;2023-05-20T07:51:32;2.83;;;2.60;;
47373;SDS011;33123;50.118;10.272;2023-05-20T07:53:59;3.63;;;3.10;;
47373;SDS011;33123;50.118;10.272;2023-05-20T07:56:25;2.65;;;2.45;;
47373;SDS011;33123;50.118;10.272;2023-05-20T07:58:54;3.65;;;2.40;;
47373;SDS011;33123;50.118;10.272;2023-05-20T08:01:22;3.80;;;3.00;;
47373;SDS011;33123;50.118;10.272;2023-05-20T08:03:49;2.50;;;2.13;;
47373;SDS011;33123;50.118;10.272;2023-05-20T08:06:16;7.75;;;2.70;;
47373;SDS011;33123;50.118;10.272;2023-05-20T08:08:44;2.60;;;2.38;;
47373;SDS011;33123;50.118;10.272;2023-05-20T08:11:11;4.18;;;3.40;;
47373;SDS011;33123;50.118;10.272;2023-05-20T08:13:38;5.35;;;3.08;;
47373;SDS011;33123;50.118;10.272;2023-05-20T08:16:06;3.30;;;2.92;;
47373;SDS011;33123;50.118;10.272;2023-05-20T08:18:33;2.63;;;2.40;;
47373;SDS011;33123;50.118;10.272;2023-05-20T08:21:01;3.63;;;3.33;;
47373;SDS011;33123;50.118;10.272;2023-05-20T08:23:28;2.97;;;2.65;;
47373;SDS011;33123;50.118;10.272;2023-05-20T08:25:55;4.72;;;3.05;;
47373;SDS011;33123;50.118;10.272;2023-05-20T08:28:26;3.30;;;2.78;;
47373;SDS011;33123;50.118;10.272;2023-05-20T08:30:53;3.28;;;2.53;;
47373;SDS011;33123;50.118;10.272;2023-05-20T08:33:21;3.67;;;2.78;;
47373;SDS011;33123;50.118;10.272;2023-05-20T08:35:48;3.63;;;3.33;;
47373;SDS011;33123;50.118;10.272;2023-05-20T08:38:15;3.85;;;3.08;;
47373;SDS011;33123;50.118;10.272;2023-05-20T08:40:41;3.83;;;3.35;;
47373;SDS011;33123;50.118;10.272;2023-05-20T08:43:08;3.92;;;3.17;;
47373;SDS011;33123;50.118;10.272;2023-05-20T08:45:36;2.97;;;2.53;;
47373;SDS011;33123;50.118;10.272;2023-05-20T08:48:03;3.38;;;3.08;;
47373;SDS011;33123;50.118;10.272;2023-05-20T08:50:32;3.40;;;3.03;;
47373;SDS011;33123;50.118;10.272;2023-05-20T08:52:59;4.75;;;3.03;;
47373;SDS011;33123;50.118;10.272;2023-05-20T08:55:28;3.17;;;2.88;;
47373;SDS011;33123;50.118;10.272;2023-05-20T08:58:01;3.20;;;2.90;;
47373;SDS011;33123;50.118;10.272;2023-05-20T09:00:29;3.53;;;2.83;;
47373;SDS011;33123;50.118;10.272;2023-05-20T09:02:56;2.95;;;2.65;;
47373;SDS011;33123;50.118;10.272;2023-05-20T09:05:24;3.13;;;2.75;;
47373;SDS011;33123;50.118;10.272;2023-05-20T09:08:02;2.90;;;2.67;;
47373;SDS011;33123;50.118;10.272;2023-05-20T09:10:30;3.33;;;3.03;;
47373;SDS011;33123;50.118;10.272;2023-05-20T09:12:58;2.90;;;2.60;;
47373;SDS011;33123;50.118;10.272;2023-05-20T09:15:25;6.80;;;3.33;;
47373;SDS011;33123;50.118;10.272;2023-05-20T09:17:52;3.53;;;3.22;;
47373;SDS011;33123;50.118;10.272;2023-05-20T09:20:20;3.10;;;2.25;;
47373;SDS011;33123;50.118;10.272;2023-05-20T09:22:49;3.50;;;2.80;;
47373;SDS011;33123;50.118;10.272;2023-05-20T09:25:19;2.75;;;2.55;;
47373;SDS011;33123;50.118;10.272;2023-05-20T09:27:45;4.05;;;2.45;;
47373;SDS011;33123;50.118;10.272;2023-05-20T09:30:12;3.15;;;2.60;;
47373;SDS011;33123;50.118;10.272;2023-05-20T09:32:38;2.65;;;2.35;;
47373;SDS011;33123;50.118;10.272;2023-05-20T09:35:05;5.18;;;2.75;;
47373;SDS011;33123;50.118;10.272;2023-05-20T09:37:33;3.05;;;2.80;;
47373;SDS011;33123;50.118;10.272;2023-05-20T09:40:02;4.15;;;3.42;;
47373;SDS011;33123;50.118;10.272;2023-05-20T09:45:04;4.32;;;2.75;;
47373;SDS011;33123;50.118;10.272;2023-05-20T09:47:33;3.28;;;2.92;;
47373;SDS011;33123;50.118;10.272;2023-05-20T09:50:01;3.75;;;2.67;;
47373;SDS011;33123;50.118;10.272;2023-05-20T09:52:29;3.10;;;2.67;;
47373;SDS011;33123;50.118;10.272;2023-05-20T09:54:56;4.25;;;2.63;;
47373;SDS011;33123;50.118;10.272;2023-05-20T09:57:24;3.60;;;3.00;;
47373;SDS011;33123;50.118;10.272;2023-05-20T09:59:52;2.92;;;2.45;;
47373;SDS011;33123;50.118;10.272;2023-05-20T10:02:18;3.70;;;2.70;;
47373;SDS011;33123;50.118;10.272;2023-05-20T10:04:46;2.50;;;2.30;;
47373;SDS011;33123;50.118;10.272;2023-05-20T10:07:21;3.33;;;3.03;;
47373;SDS011;33123;50.118;10.272;2023-05-20T10:10:04;2.70;;;2.50;;
47373;SDS011;33123;50.118;10.272;2023-05-20T10:12:42;4.10;;;2.97;;
47373;SDS011;33123;50.118;10.272;2023-05-20T10:15:27;9.00;;;3.92;;
47373;SDS011;33123;50.118;10.272;2023-05-20T10:18:01;3.45;;;2.70;;
47373;SDS011;33123;50.118;10.272;2023-05-20T10:20:43;3.20;;;2.90;;
47373;SDS011;33123;50.118;10.272;2023-05-20T10:23:19;2.60;;;2.40;;
47373;SDS011;33123;50.118;10.272;2023-05-20T10:25:49;3.22;;;2.90;;
47373;SDS011;33123;50.118;10.272;2023-05-20T10:28:23;3.03;;;2.53;;
47373;SDS011;33123;50.118;10.272;2023-05-20T10:30:55;3.92;;;3.03;;
47373;SDS011;33123;50.118;10.272;2023-05-20T10:33:24;3.78;;;3.05;;
47373;SDS011;33123;50.118;10.272;2023-05-20T10:35:52;2.47;;;2.20;;
47373;SDS011;33123;50.118;10.272;2023-05-20T10:38:19;2.72;;;2.53;;
47373;SDS011;33123;50.118;10.272;2023-05-20T10:40:46;6.40;;;3.03;;
47373;SDS011;33123;50.118;10.272;2023-05-20T10:43:13;2.65;;;2.08;;
47373;SDS011;33123;50.118;10.272;2023-05-20T10:45:47;3.75;;;3.10;;
47373;SDS011;33123;50.118;10.272;2023-05-20T10:48:26;6.40;;;4.63;;
47373;SDS011;33123;50.118;10.272;2023-05-20T10:50:55;3.67;;;2.35;;
47373;SDS011;33123;50.118;10.272;2023-05-20T10:53:25;2.65;;;2.42;;
47373;SDS011;33123;50.118;10.272;2023-05-20T10:55:52;3.15;;;2.47;;
47373;SDS011;33123;50.118;10.272;2023-05-20T10:58:20;5.22;;;2.65;;
47373;SDS011;33123;50.118;10.272;2023-05-20T11:00:48;3.03;;;2.30;;
47373;SDS011;33123;50.118;10.272;2023-05-20T11:03:15;2.92;;;2.67;;
47373;SDS011;33123;50.118;10.272;2023-05-20T11:05:45;9.02;;;3.08;;
47373;SDS011;33123;50.118;10.272;2023-05-20T11:08:12;3.80;;;2.92;;
47373;SDS011;33123;50.118;10.272;2023-05-20T11:10:40;3.72;;;3.35;;
47373;SDS011;33123;50.118;10.272;2023-05-20T11:13:07;4.72;;;2.00;;
47373;SDS011;33123;50.118;10.272;2023-05-20T11:15:37;3.22;;;2.80;;
47373;SDS011;33123;50.118;10.272;2023-05-20T11:18:05;2.58;;;2.38;;
47373;SDS011;33123;50.118;10.272;2023-05-20T11:20:32;3.38;;;2.53;;
47373;SDS011;33123;50.118;10.272;2023-05-20T11:23:00;10.73;;;7.55;;
47373;SDS011;33123;50.118;10.272;2023-05-20T11:25:28;3.30;;;3.00;;
47373;SDS011;33123;50.118;10.272;2023-05-20T11:27:55;3.13;;;2.70;;
47373;SDS011;33123;50.118;10.272;2023-05-20T11:30:21;4.07;;;3.65;;
47373;SDS011;33123;50.118;10.272;2023-05-20T11:32:58;3.63;;;2.88;;
47373;SDS011;33123;50.118;10.272;2023-05-20T11:35:25;2.83;;;2.63;;
47373;SDS011;33123;50.118;10.272;2023-05-20T11:37:54;3.13;;;2.83;;
47373;SDS011;33123;50.118;10.272;2023-05-20T11:40:24;5.35;;;3.67;;
47373;SDS011;33123;50.118;10.272;2023-05-20T11:42:52;3.08;;;2.55;;
47373;SDS011;33123;50.118;10.272;2023-05-20T11:45:20;3.50;;;2.63;;
47373;SDS011;33123;50.118;10.272;2023-05-20T11:47:57;3.22;;;2.92;;
47373;SDS011;33123;50.118;10.272;2023-05-20T11:50:24;3.60;;;3.03;;
47373;SDS011;33123;50.118;10.272;2023-05-20T11:52:54;4.97;;;3.10;;
47373;SDS011;33123;50.118;10.272;2023-05-20T11:55:24;4.38;;;3.00;;
47373;SDS011;33123;50.118;10.272;2023-05-20T11:57:50;3.10;;;2.90;;
47373;SDS011;33123;50.118;10.272;2023-05-20T12:00:17;3.55;;;3.00;;
47373;SDS011;33123;50.118;10.272;2023-05-20T12:02:44;4.68;;;2.72;;
47373;SDS011;33123;50.118;10.272;2023-05-20T12:05:11;4.28;;;3.33;;
47373;SDS011;33123;50.118;10.272;2023-05-20T12:07:38;2.88;;;2.40;;
47373;SDS011;33123;50.118;10.272;2023-05-20T12:10:06;3.40;;;2.78;;
47373;SDS011;33123;50.118;10.272;2023-05-20T12:12:34;3.22;;;2.72;;
47373;SDS011;33123;50.118;10.272;2023-05-20T12:15:01;3.22;;;3.03;;
47373;SDS011;33123;50.118;10.272;2023-05-20T12:17:28;3.15;;;2.78;;
47373;SDS011;33123;50.118;10.272;2023-05-20T12:19:55;2.28;;;2.08;;
47373;SDS011;33123;50.118;10.272;2023-05-20T12:22:21;3.55;;;2.63;;
47373;SDS011;33123;50.118;10.272;2023-05-20T12:24:48;4.13;;;2.75;;
47373;SDS011;33123;50.118;10.272;2023-05-20T12:27:15;5.93;;;3.17;;
47373;SDS011;33123;50.118;10.272;2023-05-20T12:29:43;2.38;;;2.17;;
47373;SDS011;33123;50.118;10.272;2023-05-20T12:32:09;4.07;;;2.78;;
47373;SDS011;33123;50.118;10.272;2023-05-20T12:34:36;4.93;;;2.97;;
47373;SDS011;33123;50.118;10.272;2023-05-20T12:37:03;2.28;;;2.08;;
47373;SDS011;33123;50.118;10.272;2023-05-20T12:39:30;3.08;;;2.30;;
47373;SDS011;33123;50.118;10.272;2023-05-20T12:41:56;3.85;;;3.45;;
47373;SDS011;33123;50.118;10.272;2023-05-20T12:44:23;4.90;;;3.38;;
47373;SDS011;33123;50.118;10.272;2023-05-20T12:46:51;11.55;;;6.45;;
47373;SDS011;33123;50.118;10.272;2023-05-20T12:49:19;5.40;;;3.15;;
47373;SDS011;33123;50.118;10.272;2023-05-20T12:51:46;4.10;;;3.63;;
47373;SDS011;33123;50.118;10.272;2023-05-20T12:54:13;4.28;;;2.97;;
47373;SDS011;33123;50.118;10.272;2023-05-20T12:56:39;4.47;;;3.65;;
47373;SDS011;33123;50.118;10.272;2023-05-20T12:59:06;7.03;;;5.45;;
47373;SDS011;33123;50.118;10.272;2023-05-20T13:01:32;5.65;;;5.05;;
47373;SDS011;33123;50.118;10.272;2023-05-20T13:04:00;5.68;;;4.35;;
47373;SDS011;33123;50.118;10.272;2023-05-20T13:06:27;6.82;;;3.10;;
47373;SDS011;33123;50.118;10.272;2023-05-20T13:08:54;3.35;;;2.60;;
47373;SDS011;33123;50.118;10.272;2023-05-20T13:11:20;3.90;;;3.22;;
47373;SDS011;33123;50.118;10.272;2023-05-20T13:13:47;2.45;;;2.20;;
47373;SDS011;33123;50.118;10.272;2023-05-20T13:16:14;4.63;;;4.03;;
47373;SDS011;33123;50.118;10.272;2023-05-20T13:18:42;5.10;;;4.57;;
47373;SDS011;33123;50.118;10.272;2023-05-20T13:21:09;6.40;;;5.35;;
47373;SDS011;33123;50.118;10.272;2023-05-20T13:23:36;4.80;;;3.90;;
47373;SDS011;33123;50.118;10.272;2023-05-20T13:26:04;3.95;;;3.17;;
47373;SDS011;33123;50.118;10.272;2023-05-20T13:28:30;2.55;;;2.35;;
47373;SDS011;33123;50.118;10.272;2023-05-20T13:30:57;9.05;;;2.53;;
47373;SDS011;33123;50.118;10.272;2023-05-20T13:33:23;2.95;;;2.65;;
47373;SDS011;33123;50.118;10.272;2023-05-20T13:35:50;2.30;;;2.03;;
47373;SDS011;33123;50.118;10.272;2023-05-20T13:38:19;3.20;;;2.03;;
47373;SDS011;33123;50.118;10.272;2023-05-20T13:40:46;4.78;;;3.95;;
47373;SDS011;33123;50.118;10.272;2023-05-20T13:43:13;2.92;;;2.28;;
47373;SDS011;33123;50.118;10.272;2023-05-20T13:45:40;2.63;;;2.15;;
47373;SDS011;33123;50.118;10.272;2023-05-20T13:48:07;3.08;;;1.95;;
47373;SDS011;33123;50.118;10.272;2023-05-20T13:50:34;4.65;;;3.03;;
47373;SDS011;33123;50.118;10.272;2023-05-20T13:53:00;5.75;;;2.60;;
47373;SDS011;33123;50.118;10.272;2023-05-20T13:55:29;2.80;;;2.58;;
47373;SDS011;33123;50.118;10.272;2023-05-20T13:57:58;4.90;;;3.33;;
47373;SDS011;33123;50.118;10.272;2023-05-20T14:00:24;4.40;;;2.47;;
47373;SDS011;33123;50.118;10.272;2023-05-20T14:02:51;3.53;;;3.22;;
47373;SDS011;33123;50.118;10.272;2023-05-20T14:05:18;4.05;;;3.00;;
47373;SDS011;33123;50.118;10.272;2023-05-20T14:07:45;3.60;;;3.10;;
47373;SDS011;33123;50.118;10.272;2023-05-20T14:10:12;10.60;;;3.63;;
47373;SDS011;33123;50.118;10.272;2023-05-20T14:12:40;5.50;;;4.43;;
47373;SDS011;33123;50.118;10.272;2023-05-20T14:15:11;3.15;;;2.70;;
47373;SDS011;33123;50.118;10.272;2023-05-20T14:17:38;6.22;;;5.60;;
47373;SDS011;33123;50.118;10.272;2023-05-20T14:20:07;26.20;;;11.52;;
47373;SDS011;33123;50.118;10.272;2023-05-20T14:22:34;96.45;;;88.75;;
47373;SDS011;33123;50.118;10.272;2023-05-20T14:25:01;90.57;;;82.82;;
47373;SDS011;33123;50.118;10.272;2023-05-20T14:27:27;343.10;;;310.50;;
47373;SDS011;33123;50.118;10.272;2023-05-20T14:29:55;135.15;;;123.20;;
47373;SDS011;33123;50.118;10.272;2023-05-20T14:32:22;97.60;;;88.75;;
47373;SDS011;33123;50.118;10.272;2023-05-20T14:34:49;106.50;;;96.25;;
47373;SDS011;33123;50.118;10.272;2023-05-20T14:37:17;8.82;;;8.13;;